Terminal Aerodrome Forecast
Issued by NWS Des Moines, IA

Home | Current Version | Previous Version | Text Only | Print | Product List | Glossary On
Versions: 1 2 3 4 5 6 7 8 9 10 11 12 13 14 15 16 17 18 19 20 21 22 23 24 25 26 27 28 29 30 31 32 33 34 35 36
000
FTUS43 KDMX 201124
TAFALO
TAF
KALO 201124Z 2012/2112 VRB05KT P6SM FEW040 BKN150
      TEMPO 2012/2013 5SM BR FEW010
     FM201600 15007KT P6SM FEW045 SCT080 BKN120
     FM210500 14005KT 5SM BR SCT050 BKN090=

USA.gov is the U.S. government's official web portal to all federal, state and local government web resources and services.